This is the latest recevied weather packets stored in our database for station/object IR1CH-3. If no packets are shown the sender has not sent any weather packets the latest 10 day(s).
| Time | Temp. | Humidity | Pressure | Rain* | Wind** | Luminosity | Snow |
|---|---|---|---|---|---|---|---|
| 1788086300 | 28.33° C | 83% | 740.1 hPa | - | - | - | - |
| 1788084497 | 28.33° C | 83% | 739.5 hPa | - | - | - | - |
| 1788082693 | 27.78° C | 86% | 739.5 hPa | - | - | - | - |
| 1788080890 | 27.78° C | 86% | 739 hPa | - | - | - | - |
| 1788079086 | 26.67° C | 89% | 738.2 hPa | - | - | - | - |
| 1788077283 | 26.11° C | 93% | 737.6 hPa | - | - | - | - |
| 1788075479 | 25.56° C | 94% | 736.6 hPa | - | - | - | - |
| 1788073676 | 25.56° C | 92% | 736.5 hPa | - | - | - | - |
| 1788071872 | 25° C | 91% | 736.3 hPa | - | - | - | - |
| 1788070069 | 25° C | 90% | 736.5 hPa | - | - | - | - |
| 1788068265 | 25.56° C | 87% | 736.7 hPa | - | - | - | - |
| 1788066462 | 23.89° C | 95% | 734.9 hPa | - | - | - | - |
| 1788064658 | 23.89° C | 95% | 735 hPa | - | - | - | - |
| 1788062855 | 23.89° C | 95% | 735.1 hPa | - | - | - | - |
| 1788061051 | 23.89° C | 96% | 735.3 hPa | - | - | - | - |
| 1788059248 | 23.89° C | 95% | 735.3 hPa | - | - | - | - |
| 1788035836 | 26.11° C | 83% | 0 hPa | - | - | - | - |
| 1788034036 | 26.67° C | 83% | 738 hPa | - | - | - | - |
| 1788032191 | 25.56° C | 88% | 737 hPa | - | - | - | - |
| 1788030388 | 26.11° C | 84% | 737.8 hPa | - | - | - | - |
| 1788028586 | 26.67° C | 83% | 0 hPa | - | - | - | - |
| 1788026779 | 25.56° C | 85% | 1011.9 hPa | - | - | - | - |
| 1788024977 | 25.56° C | 84% | 0 hPa | - | - | - | - |
| 1788021369 | 26.11° C | 81% | 1011.7 hPa | - | - | - | - |
| 1788019566 | 27.22° C | 76% | 0 hPa | - | - | - | - |
* Rain since midnight (hover to see other rain measurements)
** Current wind speed in m/s (hover to see current wind gust speed)